Thorn Hill, Tennessee
Current Conditions -  °F | °C
As of 7:55 AM on Friday 19 Dec 2014 (Local Time) from KMOR Reporting Station
Broken Clouds Broken Clouds  
Wind Chill: 34°   Ceiling: 4900
Heat Index: 34°   Visibility: 10mi
Dew Point: 27°   Wind: 3mph
Humidity: 75%   Direction: 20°NNE
Pressure: 30.19"   Gusts: NA
Location:  36.36°N, 83.42°W
Report Text: KMOR 191255Z AUTO 02003KT 10SM BKN049 01/M03 A3019 RMK
Loading
Personal Weather Stations






























Interactive Weather Map New forecast layout! Learn more

10-Day Weather Forecast

Advertisements
Track Severe Weather on mobile